createdAt,value
2023-04-30T00:00:29.138Z,0.00
2023-04-30T00:01:29.122Z,0.00
2023-04-30T00:02:29.248Z,0.00
2023-04-30T00:03:29.199Z,0.00
2023-04-30T00:04:29.190Z,0.00
2023-04-30T00:05:29.100Z,0.00
2023-04-30T00:06:29.179Z,0.00
2023-04-30T00:07:29.078Z,0.00
2023-04-30T00:08:29.049Z,0.00
2023-04-30T00:09:29.033Z,0.00
2023-04-30T00:10:29.024Z,0.00
2023-04-30T00:11:29.013Z,0.00
2023-04-30T00:12:29.045Z,0.00
2023-04-30T00:13:29.005Z,0.00
2023-04-30T00:14:28.993Z,0.00
2023-04-30T00:15:28.964Z,0.00
2023-04-30T00:16:29.042Z,0.00
2023-04-30T00:17:28.992Z,0.00
2023-04-30T00:18:28.992Z,0.00
2023-04-30T00:19:28.930Z,0.00
2023-04-30T00:20:28.946Z,0.00
2023-04-30T00:21:28.902Z,0.00
2023-04-30T00:22:28.901Z,0.00
2023-04-30T00:23:28.892Z,0.00
2023-04-30T00:24:28.928Z,0.00
2023-04-30T00:25:28.858Z,0.00
2023-04-30T00:26:28.844Z,0.00
2023-04-30T00:27:28.844Z,0.00
2023-04-30T00:28:28.901Z,0.00
2023-04-30T00:29:28.848Z,0.00
2023-04-30T00:30:28.861Z,0.00
2023-04-30T00:31:28.896Z,0.00
2023-04-30T00:32:28.792Z,0.00
2023-04-30T00:33:28.819Z,0.00
2023-04-30T00:34:28.793Z,0.00
2023-04-30T00:35:28.784Z,0.00
2023-04-30T00:36:28.755Z,0.00
2023-04-30T00:37:28.741Z,0.00
2023-04-30T00:38:28.734Z,0.00
2023-04-30T00:39:28.709Z,0.00
2023-04-30T00:40:28.700Z,0.00
2023-04-30T00:41:28.676Z,0.00
2023-04-30T00:42:28.699Z,0.00
2023-04-30T00:43:28.667Z,0.00
2023-04-30T00:44:28.665Z,0.00
2023-04-30T00:45:28.634Z,0.00
2023-04-30T00:46:28.740Z,0.00
2023-04-30T00:47:28.686Z,0.00
2023-04-30T00:48:28.633Z,0.00
2023-04-30T00:49:28.598Z,0.00
2023-04-30T00:50:28.588Z,0.00
2023-04-30T00:51:28.564Z,0.00
2023-04-30T00:52:28.563Z,0.00
2023-04-30T00:53:28.627Z,0.00
2023-04-30T00:54:28.604Z,0.00
2023-04-30T00:55:28.542Z,0.00
2023-04-30T00:56:28.519Z,0.00
2023-04-30T00:57:28.514Z,0.00
2023-04-30T00:58:28.530Z,0.00
2023-04-30T00:59:28.492Z,0.00
2023-04-30T01:00:28.483Z,0.00
2023-04-30T01:01:28.488Z,0.00
2023-04-30T01:02:28.564Z,0.00
2023-04-30T01:03:28.575Z,0.00
2023-04-30T01:04:28.439Z,0.00
2023-04-30T01:05:28.422Z,0.00
2023-04-30T01:06:28.467Z,0.00
2023-04-30T01:07:28.440Z,0.00
2023-04-30T01:08:28.432Z,0.00
2023-04-30T01:09:28.374Z,0.00
2023-04-30T01:10:28.369Z,0.00
2023-04-30T01:11:28.369Z,0.00
2023-04-30T01:12:28.370Z,0.00
2023-04-30T01:13:28.331Z,0.00
2023-04-30T01:14:28.362Z,0.00
2023-04-30T01:15:28.338Z,0.00
2023-04-30T01:16:28.413Z,0.00
2023-04-30T01:17:28.324Z,0.00
2023-04-30T01:18:28.574Z,0.00
2023-04-30T01:19:28.268Z,0.00
2023-04-30T01:20:28.254Z,0.00
2023-04-30T01:21:28.248Z,0.00
2023-04-30T01:22:28.277Z,0.00
2023-04-30T01:23:28.223Z,0.00
2023-04-30T01:24:28.215Z,0.00
2023-04-30T01:25:28.226Z,0.00
2023-04-30T01:26:28.194Z,0.00
2023-04-30T01:27:28.180Z,0.00
2023-04-30T01:28:28.177Z,0.00
2023-04-30T01:29:28.171Z,0.00
2023-04-30T01:30:28.187Z,0.00
2023-04-30T01:31:28.212Z,0.00
2023-04-30T01:32:28.143Z,0.00
2023-04-30T01:33:28.130Z,0.00
2023-04-30T01:34:28.099Z,0.00
2023-04-30T01:35:28.098Z,0.00
2023-04-30T01:36:28.081Z,0.00
2023-04-30T01:37:28.072Z,0.00
2023-04-30T01:38:28.144Z,0.00
2023-04-30T01:39:28.049Z,0.00
2023-04-30T01:40:28.036Z,0.00
2023-04-30T01:41:28.046Z,0.00
2023-04-30T01:42:28.055Z,0.00
2023-04-30T01:43:28.007Z,0.00
2023-04-30T01:44:28.010Z,0.00
2023-04-30T01:45:28.005Z,0.00
2023-04-30T01:46:28.120Z,0.00
2023-04-30T01:47:28.009Z,0.00
2023-04-30T01:48:27.969Z,0.00
2023-04-30T01:49:27.944Z,0.00
2023-04-30T01:50:27.937Z,0.00
2023-04-30T01:51:27.971Z,0.00
2023-04-30T01:52:27.913Z,0.00
2023-04-30T01:53:27.930Z,0.00
2023-04-30T01:54:27.887Z,0.00
2023-04-30T01:55:27.886Z,0.00
2023-04-30T01:56:27.866Z,0.00
2023-04-30T01:57:27.913Z,0.00
2023-04-30T01:58:27.878Z,0.00
2023-04-30T01:59:27.885Z,0.00
2023-04-30T02:00:27.817Z,0.00
2023-04-30T02:01:27.887Z,0.00
2023-04-30T02:02:27.973Z,0.00
2023-04-30T02:03:28.111Z,0.00
2023-04-30T02:04:27.878Z,0.00
2023-04-30T02:05:27.812Z,0.00
2023-04-30T02:06:27.826Z,0.00
2023-04-30T02:07:27.784Z,0.00
2023-04-30T02:08:27.733Z,0.00
2023-04-30T02:09:27.720Z,0.00
2023-04-30T02:10:27.719Z,0.00
2023-04-30T02:11:27.708Z,0.00
2023-04-30T02:12:27.701Z,0.00
2023-04-30T02:13:27.702Z,0.00
2023-04-30T02:14:27.666Z,0.00
2023-04-30T02:15:27.660Z,0.00
2023-04-30T02:16:27.683Z,0.00
2023-04-30T02:17:27.656Z,0.00
2023-04-30T02:18:27.648Z,0.00
2023-04-30T02:19:27.718Z,0.00
2023-04-30T02:20:27.620Z,0.00
2023-04-30T02:21:27.610Z,0.00
2023-04-30T02:22:27.595Z,0.00
2023-04-30T02:23:27.570Z,0.00
2023-04-30T02:24:27.595Z,0.00
2023-04-30T02:25:27.562Z,0.00
2023-04-30T02:26:27.533Z,0.00
2023-04-30T02:27:27.547Z,0.00
2023-04-30T02:28:27.511Z,0.00
2023-04-30T02:29:27.509Z,0.00
2023-04-30T02:30:27.491Z,0.00
2023-04-30T02:31:27.543Z,0.00
2023-04-30T02:32:27.541Z,0.00
2023-04-30T02:33:27.477Z,0.00
2023-04-30T02:34:27.451Z,0.00
2023-04-30T02:35:27.446Z,0.00
2023-04-30T02:36:27.434Z,0.00
2023-04-30T02:37:27.434Z,0.00
2023-04-30T02:38:27.406Z,0.00
2023-04-30T02:39:27.405Z,0.00
2023-04-30T02:40:27.382Z,0.00
2023-04-30T02:41:27.375Z,0.00
2023-04-30T02:42:27.457Z,0.00
2023-04-30T02:43:27.397Z,0.00
2023-04-30T02:44:27.332Z,0.00
2023-04-30T02:45:27.380Z,0.00
2023-04-30T02:46:27.316Z,0.00
2023-04-30T02:47:27.382Z,0.00
2023-04-30T02:48:27.289Z,0.00
2023-04-30T02:49:27.285Z,0.00
2023-04-30T02:50:27.272Z,0.00
2023-04-30T02:51:27.268Z,0.00
2023-04-30T02:52:27.275Z,0.00
2023-04-30T02:53:27.262Z,0.00
2023-04-30T02:54:27.241Z,0.00
2023-04-30T02:55:27.236Z,0.00
2023-04-30T02:56:27.207Z,0.00
2023-04-30T02:57:27.216Z,0.00
2023-04-30T02:58:27.215Z,0.00
2023-04-30T02:59:27.177Z,0.00
2023-04-30T03:00:27.170Z,0.00
2023-04-30T03:01:27.230Z,0.00
2023-04-30T03:02:27.232Z,0.00
2023-04-30T03:03:27.205Z,0.00
2023-04-30T03:04:27.135Z,0.00
2023-04-30T03:05:27.116Z,0.00
2023-04-30T03:06:27.136Z,0.00
2023-04-30T03:07:27.100Z,0.00
2023-04-30T03:08:27.081Z,0.00
2023-04-30T03:09:27.062Z,0.00
2023-04-30T03:10:27.122Z,0.00
2023-04-30T03:11:27.046Z,0.00
2023-04-30T03:12:27.043Z,0.00
2023-04-30T03:13:27.087Z,0.00
2023-04-30T03:14:26.997Z,0.00
2023-04-30T03:15:27.018Z,0.00
2023-04-30T03:16:27.092Z,0.00
2023-04-30T03:17:27.035Z,0.00
2023-04-30T03:18:26.961Z,0.00
2023-04-30T03:19:26.965Z,0.00
2023-04-30T03:20:26.955Z,0.00
2023-04-30T03:21:26.937Z,0.00
2023-04-30T03:22:26.935Z,0.00
2023-04-30T03:23:26.917Z,0.00
2023-04-30T03:24:26.907Z,0.00
2023-04-30T03:25:26.889Z,0.00
2023-04-30T03:26:26.886Z,0.00
2023-04-30T03:27:26.888Z,0.00
2023-04-30T03:28:26.858Z,0.00
2023-04-30T03:29:26.848Z,0.00
2023-04-30T03:30:26.837Z,4.00
2023-04-30T03:31:26.874Z,4.00
2023-04-30T03:32:26.893Z,0.00
2023-04-30T03:33:26.849Z,0.00
2023-04-30T03:34:26.824Z,4.00
2023-04-30T03:35:26.800Z,0.00
2023-04-30T03:36:26.781Z,4.00
2023-04-30T03:37:26.800Z,4.00
2023-04-30T03:38:26.770Z,8.00
2023-04-30T03:39:26.741Z,8.00
2023-04-30T03:40:26.730Z,8.00
2023-04-30T03:41:26.724Z,8.00
2023-04-30T03:42:26.709Z,12.00
2023-04-30T03:43:26.771Z,12.00
2023-04-30T03:44:26.688Z,16.00
2023-04-30T03:45:26.686Z,16.00
2023-04-30T03:46:26.683Z,20.00
2023-04-30T03:47:26.696Z,24.00
2023-04-30T03:48:26.652Z,24.00
2023-04-30T03:49:26.661Z,32.00
2023-04-30T03:50:26.618Z,32.00
2023-04-30T03:51:26.627Z,40.00
2023-04-30T03:52:26.615Z,40.00
2023-04-30T03:53:26.716Z,48.00
2023-04-30T03:54:26.583Z,56.00
2023-04-30T03:55:26.648Z,64.00
2023-04-30T03:56:26.557Z,72.00
2023-04-30T03:57:26.556Z,80.00
2023-04-30T03:58:26.530Z,88.00
2023-04-30T03:59:26.548Z,96.00
2023-04-30T04:00:26.512Z,108.00
2023-04-30T04:01:26.510Z,116.00
2023-04-30T04:02:26.569Z,132.00
2023-04-30T04:03:26.489Z,148.00
2023-04-30T04:04:26.513Z,160.00
2023-04-30T04:05:26.536Z,176.00
2023-04-30T04:06:26.481Z,192.00
2023-04-30T04:07:26.476Z,208.00
2023-04-30T04:08:26.425Z,232.00
2023-04-30T04:09:26.433Z,248.00
2023-04-30T04:10:26.400Z,268.00
2023-04-30T04:11:26.438Z,300.00
2023-04-30T04:12:26.396Z,336.00
2023-04-30T04:13:26.394Z,384.00
2023-04-30T04:14:26.363Z,420.00
2023-04-30T04:15:26.358Z,452.00
2023-04-30T04:16:26.415Z,480.00
2023-04-30T04:17:26.388Z,488.00
2023-04-30T04:18:26.321Z,528.00
2023-04-30T04:19:26.321Z,592.00
2023-04-30T04:20:26.358Z,660.00
2023-04-30T04:21:26.287Z,724.00
2023-04-30T04:22:26.285Z,756.00
2023-04-30T04:23:26.263Z,808.00
2023-04-30T04:24:26.281Z,876.00
2023-04-30T04:25:26.248Z,912.00
2023-04-30T04:26:26.254Z,1004.00
2023-04-30T04:27:26.237Z,1068.00
2023-04-30T04:28:26.226Z,1108.00
2023-04-30T04:29:26.210Z,1156.00
2023-04-30T04:30:26.236Z,1188.00
2023-04-30T04:31:26.217Z,1280.00
2023-04-30T04:32:26.190Z,1396.00
2023-04-30T04:33:26.154Z,1504.00
2023-04-30T04:34:26.153Z,1612.00
2023-04-30T04:35:26.159Z,1688.00
2023-04-30T04:36:26.110Z,1776.00
2023-04-30T04:37:26.150Z,1808.00
2023-04-30T04:38:26.103Z,1952.00
2023-04-30T04:39:26.095Z,2000.00
2023-04-30T04:40:26.078Z,2016.00
2023-04-30T04:41:26.076Z,1996.00
2023-04-30T04:42:26.099Z,1992.00
2023-04-30T04:43:26.061Z,2244.00
2023-04-30T04:44:26.052Z,2356.00
2023-04-30T04:45:26.070Z,2508.00
2023-04-30T04:46:26.070Z,2600.00
2023-04-30T04:47:26.087Z,2564.00
2023-04-30T04:48:25.987Z,2584.00
2023-04-30T04:49:25.990Z,2604.00
2023-04-30T04:50:25.972Z,2628.00
2023-04-30T04:51:25.964Z,2640.00
2023-04-30T04:52:25.975Z,2656.00
2023-04-30T04:53:25.936Z,2724.00
2023-04-30T04:54:25.915Z,2784.00
2023-04-30T04:55:25.910Z,3008.00
2023-04-30T04:56:25.896Z,3372.00
2023-04-30T04:57:25.907Z,3584.00
2023-04-30T04:58:25.878Z,4036.00
2023-04-30T04:59:25.990Z,4140.00
2023-04-30T05:00:25.877Z,4308.00
2023-04-30T05:01:25.886Z,4584.00
2023-04-30T05:02:25.951Z,4600.00
2023-04-30T05:03:25.912Z,4808.00
2023-04-30T05:04:25.809Z,4456.00
2023-04-30T05:05:25.869Z,5260.00
2023-04-30T05:06:25.840Z,5384.00
2023-04-30T05:07:25.793Z,6460.00
2023-04-30T05:08:25.765Z,6960.00
2023-04-30T05:09:25.762Z,7556.00
2023-04-30T05:10:25.758Z,8192.00
2023-04-30T05:11:25.743Z,7736.00
2023-04-30T05:12:25.797Z,7064.00
2023-04-30T05:13:25.725Z,6728.00
2023-04-30T05:14:25.697Z,7020.00
2023-04-30T05:15:25.691Z,7468.00
2023-04-30T05:16:25.753Z,7380.00
2023-04-30T05:17:25.796Z,7136.00
2023-04-30T05:18:25.700Z,6444.00
2023-04-30T05:19:25.649Z,6052.00
2023-04-30T05:20:25.670Z,6176.00
2023-04-30T05:21:25.638Z,6224.00
2023-04-30T05:22:25.638Z,5976.00
2023-04-30T05:23:25.599Z,5556.00
2023-04-30T05:24:25.588Z,5708.00
2023-04-30T05:25:25.581Z,5844.00
2023-04-30T05:26:25.568Z,6004.00
2023-04-30T05:27:25.566Z,5796.00
2023-04-30T05:28:25.548Z,6092.00
2023-04-30T05:29:25.562Z,6064.00
2023-04-30T05:30:25.589Z,6060.00
2023-04-30T05:31:25.797Z,6608.00
2023-04-30T05:32:25.570Z,7340.00
2023-04-30T05:33:25.497Z,7792.00
2023-04-30T05:34:25.482Z,8184.00
2023-04-30T05:35:25.606Z,8928.00
2023-04-30T05:36:25.453Z,9628.00
2023-04-30T05:37:25.462Z,9284.00
2023-04-30T05:38:25.431Z,9256.00
2023-04-30T05:39:25.522Z,9436.00
2023-04-30T05:40:25.421Z,9376.00
2023-04-30T05:41:25.402Z,9244.00
2023-04-30T05:42:25.465Z,9240.00
2023-04-30T05:43:25.393Z,9136.00
2023-04-30T05:44:25.373Z,9356.00
2023-04-30T05:45:25.366Z,9680.00
2023-04-30T05:46:25.358Z,9856.00
2023-04-30T05:47:25.371Z,9928.00
2023-04-30T05:48:25.328Z,10328.00
2023-04-30T05:49:25.364Z,11272.00
2023-04-30T05:50:25.309Z,11784.00
2023-04-30T05:51:25.293Z,11612.00
2023-04-30T05:52:25.295Z,10980.00
2023-04-30T05:53:25.280Z,9980.00
2023-04-30T05:54:25.257Z,10228.00
2023-04-30T05:55:25.260Z,11032.00
2023-04-30T05:56:25.237Z,11960.00
2023-04-30T05:57:25.342Z,13652.00
2023-04-30T05:58:25.228Z,14360.00
2023-04-30T05:59:25.214Z,12840.00
2023-04-30T06:00:25.199Z,12092.00
2023-04-30T06:01:25.245Z,11192.00
2023-04-30T06:02:25.321Z,10616.00
2023-04-30T06:03:25.167Z,10700.00
2023-04-30T06:04:25.175Z,10892.00
2023-04-30T06:05:25.240Z,11976.00
2023-04-30T06:06:25.187Z,14672.00
2023-04-30T06:07:25.136Z,19424.00
2023-04-30T06:08:25.117Z,22016.00
2023-04-30T06:09:25.130Z,23360.00
2023-04-30T06:10:25.087Z,26016.00
2023-04-30T06:11:25.089Z,25888.00
2023-04-30T06:12:25.091Z,26400.00
2023-04-30T06:13:25.064Z,25472.00
2023-04-30T06:14:25.041Z,24096.00
2023-04-30T06:15:25.084Z,24288.00
2023-04-30T06:16:25.065Z,24032.00
2023-04-30T06:17:25.075Z,24704.00
2023-04-30T06:18:25.005Z,24896.00
2023-04-30T06:19:25.000Z,25120.00
2023-04-30T06:20:24.975Z,25856.00
2023-04-30T06:21:24.995Z,26272.00
2023-04-30T06:22:24.954Z,26880.00
2023-04-30T06:23:24.961Z,27232.00
2023-04-30T06:24:24.929Z,27360.00
2023-04-30T06:25:24.929Z,27552.00
2023-04-30T06:26:24.945Z,28128.00
2023-04-30T06:27:24.904Z,28704.00
2023-04-30T06:28:24.910Z,28896.00
2023-04-30T06:29:24.883Z,29600.00
2023-04-30T06:30:24.894Z,30912.00
2023-04-30T06:31:24.903Z,31424.00
2023-04-30T06:32:24.879Z,32384.00
2023-04-30T06:33:24.851Z,32864.00
2023-04-30T06:34:24.828Z,33344.00
2023-04-30T06:35:24.846Z,34080.00
2023-04-30T06:36:24.818Z,34848.00
2023-04-30T06:37:24.800Z,35424.00
2023-04-30T06:38:24.780Z,36064.00
2023-04-30T06:39:24.773Z,36384.00
2023-04-30T06:40:24.765Z,36192.00
2023-04-30T06:41:24.767Z,36672.00
2023-04-30T06:42:24.745Z,37056.00
2023-04-30T06:43:24.727Z,37568.00
2023-04-30T06:44:24.723Z,38208.00
2023-04-30T06:45:24.732Z,38880.00
2023-04-30T06:46:24.794Z,39392.00
2023-04-30T06:47:24.687Z,39712.00
2023-04-30T06:48:24.769Z,40352.00
2023-04-30T06:49:24.686Z,40416.00
2023-04-30T06:50:24.649Z,41024.00
2023-04-30T06:51:24.653Z,41152.00
2023-04-30T06:52:24.632Z,41824.00
2023-04-30T06:53:24.620Z,41760.00
2023-04-30T06:54:24.604Z,43264.00
2023-04-30T06:55:24.590Z,44416.00
2023-04-30T06:56:24.600Z,45152.00
2023-04-30T06:57:24.563Z,45152.00
2023-04-30T06:58:24.564Z,44832.00
2023-04-30T06:59:24.547Z,45728.00
2023-04-30T07:00:24.540Z,46304.00
2023-04-30T07:01:24.582Z,46464.00
2023-04-30T07:02:24.602Z,46208.00
2023-04-30T07:03:24.552Z,45952.00
2023-04-30T07:04:24.503Z,46848.00
2023-04-30T07:05:24.482Z,46784.00
2023-04-30T07:06:24.500Z,46464.00
2023-04-30T07:07:24.472Z,46912.00
2023-04-30T07:08:24.449Z,47264.00
2023-04-30T07:09:24.429Z,48608.00
2023-04-30T07:10:24.550Z,48800.00
2023-04-30T07:11:24.416Z,48096.00
2023-04-30T07:12:24.395Z,49376.00
2023-04-30T07:13:24.391Z,49664.00
2023-04-30T07:14:24.388Z,50624.00
2023-04-30T07:15:24.366Z,51680.00
2023-04-30T07:16:24.452Z,52032.00
2023-04-30T07:17:26.039Z,51104.00
2023-04-30T07:18:24.333Z,50240.00
2023-04-30T07:19:24.326Z,50592.00
2023-04-30T07:20:24.324Z,51520.00
2023-04-30T07:21:24.362Z,52128.00
2023-04-30T07:22:24.312Z,51968.00
2023-04-30T07:23:24.278Z,52576.00
2023-04-30T07:24:24.269Z,53440.00
2023-04-30T07:25:24.255Z,51712.00
2023-04-30T07:26:24.269Z,51104.00
2023-04-30T07:27:24.223Z,51872.00
2023-04-30T07:28:24.240Z,51424.00
2023-04-30T07:29:24.208Z,51552.00
2023-04-30T07:30:25.194Z,51936.00
2023-04-30T07:31:24.221Z,52416.00
2023-04-30T07:32:24.183Z,52320.00
2023-04-30T07:33:24.164Z,52128.00
2023-04-30T07:34:24.158Z,53440.00
2023-04-30T07:35:24.169Z,54464.00
2023-04-30T07:36:24.149Z,54560.00
2023-04-30T07:37:24.131Z,53088.00
2023-04-30T07:38:24.157Z,54272.00
2023-04-30T07:39:24.110Z,54400.00
2023-04-30T07:40:34.896Z,56128.00
2023-04-30T07:41:25.110Z,57120.00
2023-04-30T07:42:24.062Z,55808.00
2023-04-30T07:43:24.062Z,56640.00
2023-04-30T07:44:24.079Z,56096.00
2023-04-30T07:45:24.153Z,56768.00
2023-04-30T07:46:24.056Z,54912.00
2023-04-30T07:47:24.074Z,56096.00
2023-04-30T07:48:24.009Z,59072.00
2023-04-30T07:49:24.060Z,61312.00
2023-04-30T07:50:24.004Z,63232.00
2023-04-30T07:51:23.979Z,69120.00
2023-04-30T07:52:24.013Z,76096.00
2023-04-30T07:53:23.953Z,75136.00
2023-04-30T07:54:23.929Z,76640.00
2023-04-30T07:55:23.929Z,76096.00
2023-04-30T07:56:23.974Z,82720.00
2023-04-30T07:57:23.904Z,84832.00
2023-04-30T07:58:23.961Z,82368.00
2023-04-30T07:59:23.904Z,79200.00
2023-04-30T08:00:23.872Z,80832.00
2023-04-30T08:01:23.923Z,81824.00
2023-04-30T08:02:23.967Z,86816.00
2023-04-30T08:03:23.940Z,90208.00
2023-04-30T08:04:23.954Z,84896.00
2023-04-30T08:05:23.997Z,87520.00
2023-04-30T08:06:23.848Z,87168.00
2023-04-30T08:07:23.806Z,87104.00
2023-04-30T08:08:23.821Z,85792.00
2023-04-30T08:09:23.876Z,84320.00
2023-04-30T08:10:23.785Z,83840.00
2023-04-30T08:11:23.780Z,81696.00
2023-04-30T08:12:23.753Z,78784.00
2023-04-30T08:13:23.755Z,85824.00
2023-04-30T08:14:23.731Z,88960.00
2023-04-30T08:15:23.713Z,86624.00
2023-04-30T08:16:23.797Z,86528.00
2023-04-30T08:17:24.099Z,89216.00
2023-04-30T08:18:23.685Z,89760.00
2023-04-30T08:19:23.698Z,82944.00
2023-04-30T08:20:23.887Z,89760.00
2023-04-30T08:21:23.654Z,91808.00
2023-04-30T08:22:23.638Z,86752.00
2023-04-30T08:23:23.645Z,86592.00
2023-04-30T08:24:23.640Z,88576.00
2023-04-30T08:25:23.652Z,89696.00
2023-04-30T08:26:23.618Z,89312.00
2023-04-30T08:27:23.609Z,91808.00
2023-04-30T08:28:23.575Z,93280.00
2023-04-30T08:29:23.567Z,91136.00
2023-04-30T08:30:23.553Z,92672.00
2023-04-30T08:31:23.613Z,97408.00
2023-04-30T08:32:23.726Z,96224.00
2023-04-30T08:33:23.581Z,92064.00
2023-04-30T08:34:23.502Z,90816.00
2023-04-30T08:35:23.528Z,94496.00
2023-04-30T08:36:23.486Z,93856.00
2023-04-30T08:37:23.480Z,97184.00
2023-04-30T08:38:23.494Z,98976.00
2023-04-30T08:39:23.467Z,97696.00
2023-04-30T08:40:33.744Z,95520.00
2023-04-30T08:41:24.704Z,89376.00
2023-04-30T08:42:23.450Z,92864.00
2023-04-30T08:43:23.455Z,98592.00
2023-04-30T08:44:24.068Z,94720.00
2023-04-30T08:45:23.405Z,100992.00
2023-04-30T08:46:23.500Z,98880.00
2023-04-30T08:47:23.387Z,97344.00
2023-04-30T08:48:23.365Z,98432.00
2023-04-30T08:49:24.690Z,101536.00
2023-04-30T08:50:23.339Z,97056.00
2023-04-30T08:51:23.332Z,107392.00
2023-04-30T08:52:23.311Z,106944.00
2023-04-30T08:53:23.313Z,97280.00
2023-04-30T08:54:23.319Z,95328.00
2023-04-30T08:55:23.308Z,88096.00
2023-04-30T08:56:25.310Z,91616.00
2023-04-30T08:57:23.278Z,100928.00
2023-04-30T08:58:23.253Z,100736.00
2023-04-30T08:59:23.244Z,110080.00
2023-04-30T09:00:23.221Z,101760.00
2023-04-30T09:01:23.328Z,102944.00
2023-04-30T09:02:23.365Z,102272.00
2023-04-30T09:03:23.300Z,106176.00
2023-04-30T09:04:23.191Z,111424.00
2023-04-30T09:05:23.210Z,109504.00
2023-04-30T09:06:23.197Z,112864.00
2023-04-30T09:07:23.188Z,109888.00
2023-04-30T09:08:23.149Z,106880.00
2023-04-30T09:09:23.206Z,104416.00
2023-04-30T09:10:23.128Z,99232.00
2023-04-30T09:11:23.150Z,103808.00
2023-04-30T09:12:23.143Z,97120.00
2023-04-30T09:13:23.128Z,112288.00
2023-04-30T09:14:23.086Z,107168.00
2023-04-30T09:15:23.081Z,108736.00
2023-04-30T09:16:23.158Z,117248.00
2023-04-30T09:17:23.098Z,108640.00
2023-04-30T09:18:23.044Z,110368.00
2023-04-30T09:19:23.045Z,111680.00
2023-04-30T09:20:23.035Z,101664.00
2023-04-30T09:21:23.020Z,100704.00
2023-04-30T09:22:23.029Z,107264.00
2023-04-30T09:23:23.013Z,107744.00
2023-04-30T09:24:22.984Z,107744.00
2023-04-30T09:25:23.013Z,113728.00
2023-04-30T09:26:22.977Z,109504.00
2023-04-30T09:27:22.963Z,115872.00
2023-04-30T09:28:23.076Z,112192.00
2023-04-30T09:29:22.943Z,109856.00
2023-04-30T09:30:22.918Z,107104.00
2023-04-30T09:31:22.996Z,107328.00
2023-04-30T09:32:22.971Z,104064.00
2023-04-30T09:33:22.892Z,111456.00
2023-04-30T09:34:22.900Z,115232.00
2023-04-30T09:35:22.874Z,115296.00
2023-04-30T09:36:22.887Z,112864.00
2023-04-30T09:37:22.870Z,116128.00
2023-04-30T09:38:22.890Z,113696.00
2023-04-30T09:39:22.862Z,119232.00
2023-04-30T09:40:22.827Z,124768.00
2023-04-30T09:41:22.817Z,128416.00
2023-04-30T09:42:22.858Z,124960.00
2023-04-30T09:43:22.808Z,129728.00
2023-04-30T09:44:22.821Z,123296.00
2023-04-30T09:45:22.801Z,117920.00
2023-04-30T09:46:22.839Z,108896.00
2023-04-30T09:47:22.793Z,116320.00
2023-04-30T09:48:22.949Z,113728.00
2023-04-30T09:49:22.740Z,111616.00
2023-04-30T09:50:22.758Z,113536.00
2023-04-30T09:51:22.721Z,102528.00
2023-04-30T09:52:22.712Z,112896.00
2023-04-30T09:53:22.696Z,111808.00
2023-04-30T09:54:22.736Z,114656.00
2023-04-30T09:55:22.698Z,121216.00
2023-04-30T09:56:22.686Z,115360.00
2023-04-30T09:57:22.662Z,122592.00
2023-04-30T09:58:22.664Z,118272.00
2023-04-30T09:59:22.667Z,119040.00
2023-04-30T10:00:22.641Z,112032.00
2023-04-30T10:01:22.735Z,103008.00
2023-04-30T10:02:22.769Z,105152.00
2023-04-30T10:03:22.587Z,108832.00
2023-04-30T10:04:22.652Z,114144.00
2023-04-30T10:05:22.577Z,124672.00
2023-04-30T10:06:22.646Z,125216.00
2023-04-30T10:07:22.974Z,114336.00
2023-04-30T10:08:22.559Z,120896.00
2023-04-30T10:09:22.703Z,111264.00
2023-04-30T10:10:22.530Z,117184.00
2023-04-30T10:11:22.540Z,120224.00
2023-04-30T10:12:22.552Z,124224.00
2023-04-30T10:13:22.497Z,125664.00
2023-04-30T10:14:22.500Z,122080.00
2023-04-30T10:15:22.476Z,126720.00
2023-04-30T10:16:22.514Z,125312.00
2023-04-30T10:17:22.575Z,125376.00
2023-04-30T10:18:22.458Z,129472.00
2023-04-30T10:19:22.464Z,133664.00
2023-04-30T10:20:22.471Z,117760.00
2023-04-30T10:21:22.426Z,122976.00
2023-04-30T10:22:22.425Z,127264.00
2023-04-30T10:23:22.400Z,125472.00
2023-04-30T10:24:22.394Z,121920.00
2023-04-30T10:25:22.393Z,126304.00
2023-04-30T10:26:22.406Z,121984.00
2023-04-30T10:27:22.378Z,111168.00
2023-04-30T10:28:22.352Z,125696.00
2023-04-30T10:29:22.334Z,121856.00
2023-04-30T10:30:22.358Z,115936.00
2023-04-30T10:31:22.407Z,119232.00
2023-04-30T10:32:22.513Z,113088.00
2023-04-30T10:33:22.347Z,124672.00
2023-04-30T10:34:22.368Z,120960.00
2023-04-30T10:35:22.307Z,118464.00
2023-04-30T10:36:22.276Z,126016.00
2023-04-30T10:37:22.348Z,126720.00
2023-04-30T10:38:22.263Z,46112.00
2023-04-30T10:39:22.290Z,41024.00
2023-04-30T10:40:22.244Z,28064.00
2023-04-30T10:41:22.249Z,140832.00
2023-04-30T10:42:22.230Z,140320.00
2023-04-30T10:43:22.260Z,129536.00
2023-04-30T10:44:22.267Z,134304.00
2023-04-30T10:45:22.219Z,128608.00
2023-04-30T10:46:22.291Z,135936.00
2023-04-30T10:47:22.154Z,137984.00
2023-04-30T10:48:22.167Z,125536.00
2023-04-30T10:49:22.154Z,127680.00
2023-04-30T10:50:22.127Z,119552.00
2023-04-30T10:51:22.257Z,120320.00
2023-04-30T10:52:22.116Z,123424.00
2023-04-30T10:53:22.103Z,123168.00
2023-04-30T10:54:22.090Z,118528.00
2023-04-30T10:55:22.104Z,122144.00
2023-04-30T10:56:22.116Z,108256.00
2023-04-30T10:57:22.074Z,122304.00
2023-04-30T10:58:22.074Z,119552.00
2023-04-30T10:59:22.088Z,122656.00
2023-04-30T11:00:22.051Z,115776.00
2023-04-30T11:01:22.095Z,31648.00
2023-04-30T11:02:22.089Z,117568.00
2023-04-30T11:03:22.031Z,113536.00
2023-04-30T11:04:22.083Z,98016.00
2023-04-30T11:05:22.011Z,120576.00
2023-04-30T11:06:22.027Z,127392.00
2023-04-30T11:07:21.977Z,129856.00
2023-04-30T11:08:21.975Z,139520.00
2023-04-30T11:09:21.947Z,149248.00
2023-04-30T11:10:21.960Z,139008.00
2023-04-30T11:11:21.945Z,136608.00
2023-04-30T11:12:21.918Z,130816.00
2023-04-30T11:13:21.905Z,132256.00
2023-04-30T11:14:21.923Z,130304.00
2023-04-30T11:15:21.898Z,69216.00
2023-04-30T11:16:21.937Z,83776.00
2023-04-30T11:17:21.907Z,133920.00
2023-04-30T11:18:21.872Z,143072.00
2023-04-30T11:19:21.864Z,134208.00
2023-04-30T11:20:21.944Z,115904.00
2023-04-30T11:21:21.819Z,120992.00
2023-04-30T11:22:21.849Z,119648.00
2023-04-30T11:23:28.570Z,138752.00
2023-04-30T11:24:22.814Z,40608.00
2023-04-30T11:25:21.808Z,94176.00
2023-04-30T11:26:21.800Z,123008.00
2023-04-30T11:27:21.861Z,34048.00
2023-04-30T11:28:21.794Z,64800.00
2023-04-30T11:29:21.830Z,27616.00
2023-04-30T11:30:21.792Z,23616.00
2023-04-30T11:31:21.815Z,22720.00
2023-04-30T11:32:21.801Z,22976.00
2023-04-30T11:33:21.719Z,23840.00
2023-04-30T11:34:21.730Z,25376.00
2023-04-30T11:35:21.706Z,54656.00
2023-04-30T11:36:21.685Z,133728.00
2023-04-30T11:37:21.726Z,44256.00
2023-04-30T11:38:21.686Z,42400.00
2023-04-30T11:39:21.649Z,34816.00
2023-04-30T11:40:21.668Z,28448.00
2023-04-30T11:41:21.674Z,129696.00
2023-04-30T11:42:21.653Z,127808.00
2023-04-30T11:43:21.650Z,133632.00
2023-04-30T11:44:21.660Z,132864.00
2023-04-30T11:45:21.601Z,128544.00
2023-04-30T11:46:21.599Z,132352.00
2023-04-30T11:47:21.774Z,129312.00
2023-04-30T11:48:21.602Z,125120.00
2023-04-30T11:49:21.580Z,133856.00
2023-04-30T11:50:21.564Z,140352.00
2023-04-30T11:51:21.553Z,133408.00
2023-04-30T11:52:21.553Z,136672.00
2023-04-30T11:53:21.512Z,130976.00
2023-04-30T11:54:21.543Z,132128.00
2023-04-30T11:55:21.560Z,131840.00
2023-04-30T11:56:21.596Z,124640.00
2023-04-30T11:57:21.470Z,121600.00
2023-04-30T11:58:21.465Z,140128.00
2023-04-30T11:59:21.462Z,136704.00
2023-04-30T12:00:21.451Z,120864.00
2023-04-30T12:01:21.538Z,144576.00
2023-04-30T12:02:21.623Z,107328.00
2023-04-30T12:03:21.491Z,33792.00
2023-04-30T12:04:21.458Z,38432.00
2023-04-30T12:05:21.427Z,141248.00
2023-04-30T12:06:21.447Z,42496.00
2023-04-30T12:07:22.676Z,57312.00
2023-04-30T12:08:21.378Z,36064.00
2023-04-30T12:09:21.373Z,148032.00
2023-04-30T12:10:21.373Z,144064.00
2023-04-30T12:11:21.353Z,131904.00